sensor_id;sensor_type;location;lat;lon;timestamp;temperature;humidity
7518;DHT22;3800;48.922;9.444;2022-07-18T00:01:00;16.60;98.20
7518;DHT22;3800;48.922;9.444;2022-07-18T00:03:29;16.50;98.60
7518;DHT22;3800;48.922;9.444;2022-07-18T00:05:58;16.50;98.60
7518;DHT22;3800;48.922;9.444;2022-07-18T00:08:26;16.50;98.60
7518;DHT22;3800;48.922;9.444;2022-07-18T00:10:54;16.40;98.20
7518;DHT22;3800;48.922;9.444;2022-07-18T00:13:22;16.40;98.10
7518;DHT22;3800;48.922;9.444;2022-07-18T00:15:51;16.40;98.10
7518;DHT22;3800;48.922;9.444;2022-07-18T00:18:19;16.40;98.00
7518;DHT22;3800;48.922;9.444;2022-07-18T00:20:48;16.40;98.30
7518;DHT22;3800;48.922;9.444;2022-07-18T00:23:16;16.40;98.10
7518;DHT22;3800;48.922;9.444;2022-07-18T00:25:45;16.10;99.00
7518;DHT22;3800;48.922;9.444;2022-07-18T00:28:13;16.10;99.00
7518;DHT22;3800;48.922;9.444;2022-07-18T00:30:43;16.00;99.10
7518;DHT22;3800;48.922;9.444;2022-07-18T00:33:10;16.00;99.40
7518;DHT22;3800;48.922;9.444;2022-07-18T00:35:38;15.90;99.60
7518;DHT22;3800;48.922;9.444;2022-07-18T00:38:06;15.80;99.70
7518;DHT22;3800;48.922;9.444;2022-07-18T00:40:36;15.70;99.70
7518;DHT22;3800;48.922;9.444;2022-07-18T00:43:04;15.70;99.70
7518;DHT22;3800;48.922;9.444;2022-07-18T00:45:32;15.60;99.90
7518;DHT22;3800;48.922;9.444;2022-07-18T00:48:04;15.50;99.90
7518;DHT22;3800;48.922;9.444;2022-07-18T00:50:34;15.40;99.90
7518;DHT22;3800;48.922;9.444;2022-07-18T00:53:02;15.40;99.90
7518;DHT22;3800;48.922;9.444;2022-07-18T00:55:31;15.40;99.90
7518;DHT22;3800;48.922;9.444;2022-07-18T00:57:59;15.40;99.90
7518;DHT22;3800;48.922;9.444;2022-07-18T01:00:28;15.20;99.90
7518;DHT22;3800;48.922;9.444;2022-07-18T01:03:02;15.20;99.90
7518;DHT22;3800;48.922;9.444;2022-07-18T01:05:31;15.10;99.90
7518;DHT22;3800;48.922;9.444;2022-07-18T01:07:59;15.00;99.90
7518;DHT22;3800;48.922;9.444;2022-07-18T01:10:27;15.00;99.90
7518;DHT22;3800;48.922;9.444;2022-07-18T01:12:55;15.00;99.90
7518;DHT22;3800;48.922;9.444;2022-07-18T01:15:24;14.90;99.90
7518;DHT22;3800;48.922;9.444;2022-07-18T01:17:52;14.90;99.90
7518;DHT22;3800;48.922;9.444;2022-07-18T01:20:20;14.90;99.90
7518;DHT22;3800;48.922;9.444;2022-07-18T01:22:48;14.90;99.90
7518;DHT22;3800;48.922;9.444;2022-07-18T01:25:17;14.90;99.90
7518;DHT22;3800;48.922;9.444;2022-07-18T01:27:45;14.90;99.90
7518;DHT22;3800;48.922;9.444;2022-07-18T01:30:14;14.80;99.90
7518;DHT22;3800;48.922;9.444;2022-07-18T01:32:43;14.80;99.90
7518;DHT22;3800;48.922;9.444;2022-07-18T01:35:11;14.80;99.90
7518;DHT22;3800;48.922;9.444;2022-07-18T01:37:39;14.70;99.90
7518;DHT22;3800;48.922;9.444;2022-07-18T01:40:08;14.70;99.90
7518;DHT22;3800;48.922;9.444;2022-07-18T01:42:37;14.60;99.90
7518;DHT22;3800;48.922;9.444;2022-07-18T01:45:05;14.60;99.90
7518;DHT22;3800;48.922;9.444;2022-07-18T01:47:34;14.50;99.90
7518;DHT22;3800;48.922;9.444;2022-07-18T01:50:02;14.30;99.90
7518;DHT22;3800;48.922;9.444;2022-07-18T01:52:31;14.10;99.90
7518;DHT22;3800;48.922;9.444;2022-07-18T01:55:00;14.10;99.90
7518;DHT22;3800;48.922;9.444;2022-07-18T01:57:29;14.10;99.90
7518;DHT22;3800;48.922;9.444;2022-07-18T01:59:57;14.10;99.90
7518;DHT22;3800;48.922;9.444;2022-07-18T02:02:25;14.10;99.90
7518;DHT22;3800;48.922;9.444;2022-07-18T02:04:54;14.00;99.90
7518;DHT22;3800;48.922;9.444;2022-07-18T02:07:27;14.00;99.90
7518;DHT22;3800;48.922;9.444;2022-07-18T02:09:55;13.90;99.90
7518;DHT22;3800;48.922;9.444;2022-07-18T02:12:24;13.60;99.90
7518;DHT22;3800;48.922;9.444;2022-07-18T02:14:52;13.60;99.90
7518;DHT22;3800;48.922;9.444;2022-07-18T02:17:21;13.50;99.90
7518;DHT22;3800;48.922;9.444;2022-07-18T02:19:49;13.50;99.90
7518;DHT22;3800;48.922;9.444;2022-07-18T02:22:18;13.40;99.90
7518;DHT22;3800;48.922;9.444;2022-07-18T02:24:46;13.40;99.90
7518;DHT22;3800;48.922;9.444;2022-07-18T02:27:14;13.40;99.90
7518;DHT22;3800;48.922;9.444;2022-07-18T02:29:43;13.40;99.90
7518;DHT22;3800;48.922;9.444;2022-07-18T02:32:11;13.30;99.90
7518;DHT22;3800;48.922;9.444;2022-07-18T02:34:39;13.30;99.90
7518;DHT22;3800;48.922;9.444;2022-07-18T02:37:08;13.30;99.90
7518;DHT22;3800;48.922;9.444;2022-07-18T02:39:36;13.30;99.90
7518;DHT22;3800;48.922;9.444;2022-07-18T02:42:06;13.40;99.90
7518;DHT22;3800;48.922;9.444;2022-07-18T02:44:34;13.40;99.90
7518;DHT22;3800;48.922;9.444;2022-07-18T02:47:02;13.40;99.90
7518;DHT22;3800;48.922;9.444;2022-07-18T02:49:30;13.50;99.90
7518;DHT22;3800;48.922;9.444;2022-07-18T02:52:00;13.50;99.90
7518;DHT22;3800;48.922;9.444;2022-07-18T02:54:28;13.50;99.90
7518;DHT22;3800;48.922;9.444;2022-07-18T02:56:56;13.50;99.90
7518;DHT22;3800;48.922;9.444;2022-07-18T02:59:24;13.50;99.90
7518;DHT22;3800;48.922;9.444;2022-07-18T03:01:53;13.40;99.90
7518;DHT22;3800;48.922;9.444;2022-07-18T03:04:21;13.50;99.90
7518;DHT22;3800;48.922;9.444;2022-07-18T03:06:49;13.40;99.90
7518;DHT22;3800;48.922;9.444;2022-07-18T03:09:17;13.40;99.90
7518;DHT22;3800;48.922;9.444;2022-07-18T03:11:46;13.40;99.90
7518;DHT22;3800;48.922;9.444;2022-07-18T03:14:14;13.40;99.90
7518;DHT22;3800;48.922;9.444;2022-07-18T03:16:42;13.30;99.90
7518;DHT22;3800;48.922;9.444;2022-07-18T03:19:10;13.30;99.90
7518;DHT22;3800;48.922;9.444;2022-07-18T03:21:39;13.20;99.90
7518;DHT22;3800;48.922;9.444;2022-07-18T03:24:07;13.20;99.90
7518;DHT22;3800;48.922;9.444;2022-07-18T03:26:35;13.10;99.90
7518;DHT22;3800;48.922;9.444;2022-07-18T03:29:03;13.00;99.90
7518;DHT22;3800;48.922;9.444;2022-07-18T03:31:32;12.90;99.90
7518;DHT22;3800;48.922;9.444;2022-07-18T03:34:00;12.90;99.90
7518;DHT22;3800;48.922;9.444;2022-07-18T03:36:28;12.80;99.90
7518;DHT22;3800;48.922;9.444;2022-07-18T03:38:56;12.80;99.90
7518;DHT22;3800;48.922;9.444;2022-07-18T03:41:25;12.70;99.90
7518;DHT22;3800;48.922;9.444;2022-07-18T03:43:53;12.80;99.90
7518;DHT22;3800;48.922;9.444;2022-07-18T03:46:22;12.80;99.90
7518;DHT22;3800;48.922;9.444;2022-07-18T03:48:50;12.70;99.90
7518;DHT22;3800;48.922;9.444;2022-07-18T03:51:18;12.70;99.90
7518;DHT22;3800;48.922;9.444;2022-07-18T03:53:47;12.70;99.90
7518;DHT22;3800;48.922;9.444;2022-07-18T03:56:15;12.80;99.90
7518;DHT22;3800;48.922;9.444;2022-07-18T03:58:43;12.80;99.90
7518;DHT22;3800;48.922;9.444;2022-07-18T04:01:12;12.70;99.90
7518;DHT22;3800;48.922;9.444;2022-07-18T04:03:40;12.70;99.90
7518;DHT22;3800;48.922;9.444;2022-07-18T04:06:09;12.70;99.90
7518;DHT22;3800;48.922;9.444;2022-07-18T04:08:37;12.70;99.90
7518;DHT22;3800;48.922;9.444;2022-07-18T04:11:05;12.70;99.90
7518;DHT22;3800;48.922;9.444;2022-07-18T04:13:34;12.70;99.90
7518;DHT22;3800;48.922;9.444;2022-07-18T04:16:02;12.70;99.90
7518;DHT22;3800;48.922;9.444;2022-07-18T04:18:31;12.60;99.90
7518;DHT22;3800;48.922;9.444;2022-07-18T04:20:59;12.60;99.90
7518;DHT22;3800;48.922;9.444;2022-07-18T04:23:28;12.70;99.90
7518;DHT22;3800;48.922;9.444;2022-07-18T04:25:56;12.70;99.90
7518;DHT22;3800;48.922;9.444;2022-07-18T04:28:25;12.70;99.90
7518;DHT22;3800;48.922;9.444;2022-07-18T04:30:54;12.70;99.90
7518;DHT22;3800;48.922;9.444;2022-07-18T04:33:22;12.80;99.90
7518;DHT22;3800;48.922;9.444;2022-07-18T04:35:51;12.80;99.90
7518;DHT22;3800;48.922;9.444;2022-07-18T04:38:19;12.90;99.90
7518;DHT22;3800;48.922;9.444;2022-07-18T04:40:48;12.90;99.90
7518;DHT22;3800;48.922;9.444;2022-07-18T04:43:16;12.90;99.90
7518;DHT22;3800;48.922;9.444;2022-07-18T04:45:45;13.00;99.90
7518;DHT22;3800;48.922;9.444;2022-07-18T04:48:13;13.00;99.90
7518;DHT22;3800;48.922;9.444;2022-07-18T04:50:42;13.20;99.90
7518;DHT22;3800;48.922;9.444;2022-07-18T04:53:10;13.20;99.90
7518;DHT22;3800;48.922;9.444;2022-07-18T04:55:39;13.30;99.90
7518;DHT22;3800;48.922;9.444;2022-07-18T04:58:07;13.30;99.90
7518;DHT22;3800;48.922;9.444;2022-07-18T05:00:35;13.40;99.90
7518;DHT22;3800;48.922;9.444;2022-07-18T05:03:03;13.50;99.90
7518;DHT22;3800;48.922;9.444;2022-07-18T05:05:32;13.50;99.90
7518;DHT22;3800;48.922;9.444;2022-07-18T05:08:00;13.60;99.90
7518;DHT22;3800;48.922;9.444;2022-07-18T05:10:28;13.60;99.90
7518;DHT22;3800;48.922;9.444;2022-07-18T05:12:56;13.70;99.90
7518;DHT22;3800;48.922;9.444;2022-07-18T05:15:25;13.70;99.90
7518;DHT22;3800;48.922;9.444;2022-07-18T05:17:54;13.80;99.90
7518;DHT22;3800;48.922;9.444;2022-07-18T05:20:24;13.80;99.90
7518;DHT22;3800;48.922;9.444;2022-07-18T05:22:50;13.90;99.90
7518;DHT22;3800;48.922;9.444;2022-07-18T05:25:19;14.00;99.90
7518;DHT22;3800;48.922;9.444;2022-07-18T05:27:47;14.10;99.90
7518;DHT22;3800;48.922;9.444;2022-07-18T05:30:16;14.30;99.90
7518;DHT22;3800;48.922;9.444;2022-07-18T05:32:44;14.20;99.90
7518;DHT22;3800;48.922;9.444;2022-07-18T05:35:13;14.40;99.90
7518;DHT22;3800;48.922;9.444;2022-07-18T05:37:41;14.40;99.90
7518;DHT22;3800;48.922;9.444;2022-07-18T05:40:10;14.50;99.90
7518;DHT22;3800;48.922;9.444;2022-07-18T05:42:38;14.60;99.90
7518;DHT22;3800;48.922;9.444;2022-07-18T05:45:08;14.70;99.90
7518;DHT22;3800;48.922;9.444;2022-07-18T05:47:36;14.70;99.90
7518;DHT22;3800;48.922;9.444;2022-07-18T05:50:05;14.80;99.90
7518;DHT22;3800;48.922;9.444;2022-07-18T05:52:34;14.90;99.90
7518;DHT22;3800;48.922;9.444;2022-07-18T05:55:02;14.90;99.90
7518;DHT22;3800;48.922;9.444;2022-07-18T05:57:31;15.00;99.90
7518;DHT22;3800;48.922;9.444;2022-07-18T05:59:59;15.10;99.90
7518;DHT22;3800;48.922;9.444;2022-07-18T06:02:27;15.20;99.90
7518;DHT22;3800;48.922;9.444;2022-07-18T06:04:56;15.30;99.90
7518;DHT22;3800;48.922;9.444;2022-07-18T06:07:25;15.40;99.90
7518;DHT22;3800;48.922;9.444;2022-07-18T06:09:53;15.50;99.90
7518;DHT22;3800;48.922;9.444;2022-07-18T06:12:21;15.60;99.90
7518;DHT22;3800;48.922;9.444;2022-07-18T06:14:49;15.70;99.90
7518;DHT22;3800;48.922;9.444;2022-07-18T06:17:17;15.80;99.90
7518;DHT22;3800;48.922;9.444;2022-07-18T06:19:46;15.90;99.90
7518;DHT22;3800;48.922;9.444;2022-07-18T06:22:14;16.00;99.90
7518;DHT22;3800;48.922;9.444;2022-07-18T06:24:42;16.10;99.90
7518;DHT22;3800;48.922;9.444;2022-07-18T06:27:11;16.40;99.90
7518;DHT22;3800;48.922;9.444;2022-07-18T06:29:39;16.40;99.90
7518;DHT22;3800;48.922;9.444;2022-07-18T06:32:08;16.70;99.90
7518;DHT22;3800;48.922;9.444;2022-07-18T06:34:36;16.90;99.90
7518;DHT22;3800;48.922;9.444;2022-07-18T06:37:04;17.10;99.90
7518;DHT22;3800;48.922;9.444;2022-07-18T06:39:32;17.30;99.90
7518;DHT22;3800;48.922;9.444;2022-07-18T06:42:01;17.50;99.90
7518;DHT22;3800;48.922;9.444;2022-07-18T06:44:29;17.70;99.90
7518;DHT22;3800;48.922;9.444;2022-07-18T06:46:57;17.90;98.50
7518;DHT22;3800;48.922;9.444;2022-07-18T06:49:25;18.10;98.00
7518;DHT22;3800;48.922;9.444;2022-07-18T06:51:54;18.30;99.00
7518;DHT22;3800;48.922;9.444;2022-07-18T06:54:22;18.40;97.50
7518;DHT22;3800;48.922;9.444;2022-07-18T06:56:51;18.60;99.40
7518;DHT22;3800;48.922;9.444;2022-07-18T06:59:20;18.90;99.70
7518;DHT22;3800;48.922;9.444;2022-07-18T07:01:48;18.80;99.70
7518;DHT22;3800;48.922;9.444;2022-07-18T07:04:17;19.20;97.80
7518;DHT22;3800;48.922;9.444;2022-07-18T07:06:45;19.20;97.80
7518;DHT22;3800;48.922;9.444;2022-07-18T07:09:14;19.50;96.70
7518;DHT22;3800;48.922;9.444;2022-07-18T07:11:42;19.50;96.70
7518;DHT22;3800;48.922;9.444;2022-07-18T07:14:11;19.90;96.20
7518;DHT22;3800;48.922;9.444;2022-07-18T07:16:40;19.80;96.10
7518;DHT22;3800;48.922;9.444;2022-07-18T07:19:09;20.40;96.90
7518;DHT22;3800;48.922;9.444;2022-07-18T07:21:37;20.30;96.80
7518;DHT22;3800;48.922;9.444;2022-07-18T07:24:06;20.60;97.40
7518;DHT22;3800;48.922;9.444;2022-07-18T07:26:34;20.60;97.40
7518;DHT22;3800;48.922;9.444;2022-07-18T07:29:03;20.90;95.80
7518;DHT22;3800;48.922;9.444;2022-07-18T07:31:31;20.80;95.80
7518;DHT22;3800;48.922;9.444;2022-07-18T07:34:00;21.10;96.20
7518;DHT22;3800;48.922;9.444;2022-07-18T07:36:28;21.20;96.60
7518;DHT22;3800;48.922;9.444;2022-07-18T07:38:56;21.40;95.50
7518;DHT22;3800;48.922;9.444;2022-07-18T07:41:25;21.50;96.80
7518;DHT22;3800;48.922;9.444;2022-07-18T07:43:53;21.70;95.40
7518;DHT22;3800;48.922;9.444;2022-07-18T07:46:21;22.00;93.90
7518;DHT22;3800;48.922;9.444;2022-07-18T07:48:49;22.10;94.40
7518;DHT22;3800;48.922;9.444;2022-07-18T07:51:18;22.20;94.90
7518;DHT22;3800;48.922;9.444;2022-07-18T07:53:46;22.30;95.70
7518;DHT22;3800;48.922;9.444;2022-07-18T07:56:14;22.40;96.00
7518;DHT22;3800;48.922;9.444;2022-07-18T07:58:42;22.50;96.10
7518;DHT22;3800;48.922;9.444;2022-07-18T08:01:11;22.60;95.00
7518;DHT22;3800;48.922;9.444;2022-07-18T08:03:39;22.70;93.60
7518;DHT22;3800;48.922;9.444;2022-07-18T08:06:07;22.90;95.60
7518;DHT22;3800;48.922;9.444;2022-07-18T08:08:36;23.10;94.00
7518;DHT22;3800;48.922;9.444;2022-07-18T08:11:04;23.10;94.00
7518;DHT22;3800;48.922;9.444;2022-07-18T08:13:33;23.60;93.20
7518;DHT22;3800;48.922;9.444;2022-07-18T08:16:02;23.60;93.20
7518;DHT22;3800;48.922;9.444;2022-07-18T08:18:30;23.90;93.50
7518;DHT22;3800;48.922;9.444;2022-07-18T08:20:58;24.00;92.60
7518;DHT22;3800;48.922;9.444;2022-07-18T08:23:27;24.50;93.10
7518;DHT22;3800;48.922;9.444;2022-07-18T08:25:56;24.40;93.10
7518;DHT22;3800;48.922;9.444;2022-07-18T08:28:24;24.60;91.90
7518;DHT22;3800;48.922;9.444;2022-07-18T08:30:52;24.70;91.60
7518;DHT22;3800;48.922;9.444;2022-07-18T08:33:20;24.90;90.30
7518;DHT22;3800;48.922;9.444;2022-07-18T08:35:49;25.10;90.50
7518;DHT22;3800;48.922;9.444;2022-07-18T08:38:17;25.20;91.50
7518;DHT22;3800;48.922;9.444;2022-07-18T08:40:47;25.20;90.90
7518;DHT22;3800;48.922;9.444;2022-07-18T08:43:14;25.30;90.20
7518;DHT22;3800;48.922;9.444;2022-07-18T08:45:42;25.50;88.00
7518;DHT22;3800;48.922;9.444;2022-07-18T08:48:13;25.60;90.00
7518;DHT22;3800;48.922;9.444;2022-07-18T08:50:45;25.80;90.20
7518;DHT22;3800;48.922;9.444;2022-07-18T08:53:13;25.80;87.90
7518;DHT22;3800;48.922;9.444;2022-07-18T08:55:42;26.00;85.10
7518;DHT22;3800;48.922;9.444;2022-07-18T08:58:10;26.00;84.60
7518;DHT22;3800;48.922;9.444;2022-07-18T09:00:38;26.00;84.10
7518;DHT22;3800;48.922;9.444;2022-07-18T09:03:06;26.10;85.50
7518;DHT22;3800;48.922;9.444;2022-07-18T09:05:34;26.30;84.40
7518;DHT22;3800;48.922;9.444;2022-07-18T09:08:17;26.50;85.90
7518;DHT22;3800;48.922;9.444;2022-07-18T09:13:37;26.60;85.10
7518;DHT22;3800;48.922;9.444;2022-07-18T09:16:09;26.80;83.40
7518;DHT22;3800;48.922;9.444;2022-07-18T09:18:39;26.70;82.90
7518;DHT22;3800;48.922;9.444;2022-07-18T09:21:14;27.10;84.10
7518;DHT22;3800;48.922;9.444;2022-07-18T09:23:41;27.10;84.00
7518;DHT22;3800;48.922;9.444;2022-07-18T09:26:09;27.10;81.80
7518;DHT22;3800;48.922;9.444;2022-07-18T09:28:46;27.10;79.10
7518;DHT22;3800;48.922;9.444;2022-07-18T09:31:21;27.40;78.80
7518;DHT22;3800;48.922;9.444;2022-07-18T09:33:53;27.50;77.70
7518;DHT22;3800;48.922;9.444;2022-07-18T09:36:22;27.40;77.50
7518;DHT22;3800;48.922;9.444;2022-07-18T09:38:50;27.40;77.60
7518;DHT22;3800;48.922;9.444;2022-07-18T09:41:24;27.40;77.60
7518;DHT22;3800;48.922;9.444;2022-07-18T09:43:51;27.50;76.90
7518;DHT22;3800;48.922;9.444;2022-07-18T09:46:20;27.60;78.80
7518;DHT22;3800;48.922;9.444;2022-07-18T09:48:49;27.60;77.30
7518;DHT22;3800;48.922;9.444;2022-07-18T09:51:16;27.70;77.50
7518;DHT22;3800;48.922;9.444;2022-07-18T09:53:45;27.80;77.20
7518;DHT22;3800;48.922;9.444;2022-07-18T09:56:14;27.90;77.10
7518;DHT22;3800;48.922;9.444;2022-07-18T09:58:42;28.10;79.10
7518;DHT22;3800;48.922;9.444;2022-07-18T10:01:09;28.00;76.60
7518;DHT22;3800;48.922;9.444;2022-07-18T10:03:38;28.10;76.00
7518;DHT22;3800;48.922;9.444;2022-07-18T10:06:07;28.10;76.10
7518;DHT22;3800;48.922;9.444;2022-07-18T10:08:36;28.30;74.90
7518;DHT22;3800;48.922;9.444;2022-07-18T10:11:05;28.30;74.90
7518;DHT22;3800;48.922;9.444;2022-07-18T10:13:33;28.30;75.60
7518;DHT22;3800;48.922;9.444;2022-07-18T10:16:01;28.40;77.90
7518;DHT22;3800;48.922;9.444;2022-07-18T10:18:30;28.50;78.60
7518;DHT22;3800;48.922;9.444;2022-07-18T10:21:04;28.50;78.60
7518;DHT22;3800;48.922;9.444;2022-07-18T10:23:37;28.50;77.50
7518;DHT22;3800;48.922;9.444;2022-07-18T10:26:17;28.50;75.00
7518;DHT22;3800;48.922;9.444;2022-07-18T10:29:08;28.50;75.30
7518;DHT22;3800;48.922;9.444;2022-07-18T10:31:37;28.50;76.00
7518;DHT22;3800;48.922;9.444;2022-07-18T10:34:12;28.50;73.80
7518;DHT22;3800;48.922;9.444;2022-07-18T10:39:32;28.60;73.90
7518;DHT22;3800;48.922;9.444;2022-07-18T10:42:15;28.70;74.40
7518;DHT22;3800;48.922;9.444;2022-07-18T10:44:43;28.80;73.00
7518;DHT22;3800;48.922;9.444;2022-07-18T10:47:12;28.80;73.70
7518;DHT22;3800;48.922;9.444;2022-07-18T10:50:00;28.90;72.80
7518;DHT22;3800;48.922;9.444;2022-07-18T10:52:55;28.80;72.70
7518;DHT22;3800;48.922;9.444;2022-07-18T10:55:26;29.00;73.30
7518;DHT22;3800;48.922;9.444;2022-07-18T10:58:16;29.00;72.20
7518;DHT22;3800;48.922;9.444;2022-07-18T11:00:45;28.90;74.30
7518;DHT22;3800;48.922;9.444;2022-07-18T11:03:13;29.00;73.50
7518;DHT22;3800;48.922;9.444;2022-07-18T11:05:44;29.00;73.50
7518;DHT22;3800;48.922;9.444;2022-07-18T11:08:20;29.10;73.00
7518;DHT22;3800;48.922;9.444;2022-07-18T11:11:03;29.10;74.00
7518;DHT22;3800;48.922;9.444;2022-07-18T11:13:34;29.10;70.20
7518;DHT22;3800;48.922;9.444;2022-07-18T11:16:21;29.10;70.20
7518;DHT22;3800;48.922;9.444;2022-07-18T11:19:15;29.10;69.70
7518;DHT22;3800;48.922;9.444;2022-07-18T11:21:44;29.10;70.60
7518;DHT22;3800;48.922;9.444;2022-07-18T11:24:12;29.10;72.00
7518;DHT22;3800;48.922;9.444;2022-07-18T11:26:44;29.20;72.50
7518;DHT22;3800;48.922;9.444;2022-07-18T11:29:13;29.20;72.90
7518;DHT22;3800;48.922;9.444;2022-07-18T11:31:44;29.30;69.90
7518;DHT22;3800;48.922;9.444;2022-07-18T11:34:13;29.30;69.60
7518;DHT22;3800;48.922;9.444;2022-07-18T11:36:43;29.50;71.00
7518;DHT22;3800;48.922;9.444;2022-07-18T11:39:10;29.50;70.60
7518;DHT22;3800;48.922;9.444;2022-07-18T11:41:39;29.60;70.00
7518;DHT22;3800;48.922;9.444;2022-07-18T11:44:16;29.70;69.30
7518;DHT22;3800;48.922;9.444;2022-07-18T11:46:43;29.70;68.30
7518;DHT22;3800;48.922;9.444;2022-07-18T11:49:12;29.70;70.10
7518;DHT22;3800;48.922;9.444;2022-07-18T11:51:43;29.90;73.30
7518;DHT22;3800;48.922;9.444;2022-07-18T11:54:10;29.90;72.60
7518;DHT22;3800;48.922;9.444;2022-07-18T11:56:46;29.90;67.50
7518;DHT22;3800;48.922;9.444;2022-07-18T11:59:14;29.90;70.20
7518;DHT22;3800;48.922;9.444;2022-07-18T12:01:42;30.00;71.00
7518;DHT22;3800;48.922;9.444;2022-07-18T12:04:16;30.10;67.10
7518;DHT22;3800;48.922;9.444;2022-07-18T12:06:43;30.00;68.50
7518;DHT22;3800;48.922;9.444;2022-07-18T12:09:12;30.00;72.10
7518;DHT22;3800;48.922;9.444;2022-07-18T12:11:40;30.00;67.70
7518;DHT22;3800;48.922;9.444;2022-07-18T12:14:16;30.00;72.60
7518;DHT22;3800;48.922;9.444;2022-07-18T12:16:47;30.00;72.70
7518;DHT22;3800;48.922;9.444;2022-07-18T12:19:16;30.10;68.00
7518;DHT22;3800;48.922;9.444;2022-07-18T12:22:10;30.00;65.00
7518;DHT22;3800;48.922;9.444;2022-07-18T12:24:40;30.00;68.70
7518;DHT22;3800;48.922;9.444;2022-07-18T12:30:12;30.20;66.10
7518;DHT22;3800;48.922;9.444;2022-07-18T12:32:45;30.20;68.60
7518;DHT22;3800;48.922;9.444;2022-07-18T12:35:17;30.30;68.40
7518;DHT22;3800;48.922;9.444;2022-07-18T12:37:59;30.50;69.10
7518;DHT22;3800;48.922;9.444;2022-07-18T12:40:46;30.70;67.60
7518;DHT22;3800;48.922;9.444;2022-07-18T12:43:21;30.80;67.40
7518;DHT22;3800;48.922;9.444;2022-07-18T12:46:00;30.80;64.90
7518;DHT22;3800;48.922;9.444;2022-07-18T12:48:28;30.70;66.60
7518;DHT22;3800;48.922;9.444;2022-07-18T12:50:59;30.70;66.80
7518;DHT22;3800;48.922;9.444;2022-07-18T12:53:28;30.70;67.00
7518;DHT22;3800;48.922;9.444;2022-07-18T12:55:56;30.80;69.80
7518;DHT22;3800;48.922;9.444;2022-07-18T12:58:24;30.80;66.40
7518;DHT22;3800;48.922;9.444;2022-07-18T13:00:52;30.80;67.80
7518;DHT22;3800;48.922;9.444;2022-07-18T13:03:21;30.90;71.20
7518;DHT22;3800;48.922;9.444;2022-07-18T13:05:49;31.00;68.30
7518;DHT22;3800;48.922;9.444;2022-07-18T13:08:17;31.10;70.40
7518;DHT22;3800;48.922;9.444;2022-07-18T13:10:45;31.20;67.80
7518;DHT22;3800;48.922;9.444;2022-07-18T13:13:14;31.30;66.80
7518;DHT22;3800;48.922;9.444;2022-07-18T13:15:43;31.40;66.10
7518;DHT22;3800;48.922;9.444;2022-07-18T13:18:11;31.40;66.20
7518;DHT22;3800;48.922;9.444;2022-07-18T13:20:40;31.40;66.60
7518;DHT22;3800;48.922;9.444;2022-07-18T13:23:08;31.40;67.00
7518;DHT22;3800;48.922;9.444;2022-07-18T13:25:36;31.60;67.00
7518;DHT22;3800;48.922;9.444;2022-07-18T13:28:04;31.60;67.40
7518;DHT22;3800;48.922;9.444;2022-07-18T13:30:32;31.60;65.60
7518;DHT22;3800;48.922;9.444;2022-07-18T13:33:01;31.60;67.30
7518;DHT22;3800;48.922;9.444;2022-07-18T13:35:29;31.70;66.40
7518;DHT22;3800;48.922;9.444;2022-07-18T13:37:57;31.70;63.90
7518;DHT22;3800;48.922;9.444;2022-07-18T13:40:25;31.60;65.20
7518;DHT22;3800;48.922;9.444;2022-07-18T13:42:54;31.60;65.30
7518;DHT22;3800;48.922;9.444;2022-07-18T13:45:23;31.70;66.00
7518;DHT22;3800;48.922;9.444;2022-07-18T13:47:51;31.70;66.00
7518;DHT22;3800;48.922;9.444;2022-07-18T13:50:19;31.70;66.80
7518;DHT22;3800;48.922;9.444;2022-07-18T13:52:47;31.80;66.30
7518;DHT22;3800;48.922;9.444;2022-07-18T13:55:16;31.90;64.60
7518;DHT22;3800;48.922;9.444;2022-07-18T13:57:45;32.00;65.40
7518;DHT22;3800;48.922;9.444;2022-07-18T14:00:13;32.00;66.20
7518;DHT22;3800;48.922;9.444;2022-07-18T14:02:42;32.10;66.20
7518;DHT22;3800;48.922;9.444;2022-07-18T14:05:10;32.10;68.30
7518;DHT22;3800;48.922;9.444;2022-07-18T14:07:38;32.10;66.40
7518;DHT22;3800;48.922;9.444;2022-07-18T14:10:07;32.20;68.00
7518;DHT22;3800;48.922;9.444;2022-07-18T14:12:35;32.20;67.60
7518;DHT22;3800;48.922;9.444;2022-07-18T14:15:04;32.20;65.00
7518;DHT22;3800;48.922;9.444;2022-07-18T14:17:32;32.10;66.70
7518;DHT22;3800;48.922;9.444;2022-07-18T14:20:01;32.20;64.80
7518;DHT22;3800;48.922;9.444;2022-07-18T14:22:29;32.20;66.70
7518;DHT22;3800;48.922;9.444;2022-07-18T14:24:57;32.20;65.50
7518;DHT22;3800;48.922;9.444;2022-07-18T14:27:25;32.20;66.30
7518;DHT22;3800;48.922;9.444;2022-07-18T14:29:54;32.20;67.50
7518;DHT22;3800;48.922;9.444;2022-07-18T14:32:22;32.20;67.30
7518;DHT22;3800;48.922;9.444;2022-07-18T14:34:50;32.30;66.50
7518;DHT22;3800;48.922;9.444;2022-07-18T14:37:19;32.30;67.70
7518;DHT22;3800;48.922;9.444;2022-07-18T14:39:47;32.30;66.10
7518;DHT22;3800;48.922;9.444;2022-07-18T14:42:15;32.30;65.00
7518;DHT22;3800;48.922;9.444;2022-07-18T14:44:43;32.20;68.30
7518;DHT22;3800;48.922;9.444;2022-07-18T14:47:12;32.20;63.00
7518;DHT22;3800;48.922;9.444;2022-07-18T14:49:40;32.20;63.00
7518;DHT22;3800;48.922;9.444;2022-07-18T14:52:08;32.20;62.80
7518;DHT22;3800;48.922;9.444;2022-07-18T14:54:36;32.20;65.30
7518;DHT22;3800;48.922;9.444;2022-07-18T14:57:05;32.20;64.20
7518;DHT22;3800;48.922;9.444;2022-07-18T14:59:34;32.20;64.40
7518;DHT22;3800;48.922;9.444;2022-07-18T15:02:02;32.20;64.50
7518;DHT22;3800;48.922;9.444;2022-07-18T15:04:32;32.30;63.80
7518;DHT22;3800;48.922;9.444;2022-07-18T15:07:00;32.30;63.70
7518;DHT22;3800;48.922;9.444;2022-07-18T15:09:28;32.30;63.40
7518;DHT22;3800;48.922;9.444;2022-07-18T15:11:56;32.20;64.60
7518;DHT22;3800;48.922;9.444;2022-07-18T15:14:25;32.20;64.90
7518;DHT22;3800;48.922;9.444;2022-07-18T15:16:54;32.10;64.80
7518;DHT22;3800;48.922;9.444;2022-07-18T15:19:22;32.20;66.80
7518;DHT22;3800;48.922;9.444;2022-07-18T15:21:50;32.20;65.50
7518;DHT22;3800;48.922;9.444;2022-07-18T15:24:19;32.20;67.00
7518;DHT22;3800;48.922;9.444;2022-07-18T15:26:47;32.20;65.90
7518;DHT22;3800;48.922;9.444;2022-07-18T15:29:15;32.20;62.90
7518;DHT22;3800;48.922;9.444;2022-07-18T15:31:43;32.10;63.70
7518;DHT22;3800;48.922;9.444;2022-07-18T15:34:12;32.10;65.10
7518;DHT22;3800;48.922;9.444;2022-07-18T15:36:41;32.10;65.00
7518;DHT22;3800;48.922;9.444;2022-07-18T15:39:10;32.00;65.20
7518;DHT22;3800;48.922;9.444;2022-07-18T15:41:38;31.90;65.20
7518;DHT22;3800;48.922;9.444;2022-07-18T15:44:08;31.90;67.00
7518;DHT22;3800;48.922;9.444;2022-07-18T15:46:36;31.90;67.10
7518;DHT22;3800;48.922;9.444;2022-07-18T15:49:04;31.90;67.20
7518;DHT22;3800;48.922;9.444;2022-07-18T15:51:33;31.80;68.60
7518;DHT22;3800;48.922;9.444;2022-07-18T15:54:02;31.70;68.80
7518;DHT22;3800;48.922;9.444;2022-07-18T15:56:29;31.60;67.60
7518;DHT22;3800;48.922;9.444;2022-07-18T15:58:57;31.60;69.60
7518;DHT22;3800;48.922;9.444;2022-07-18T16:01:26;31.50;67.90
7518;DHT22;3800;48.922;9.444;2022-07-18T16:03:54;31.50;68.70
7518;DHT22;3800;48.922;9.444;2022-07-18T16:06:22;31.40;68.80
7518;DHT22;3800;48.922;9.444;2022-07-18T16:08:51;31.40;68.40
7518;DHT22;3800;48.922;9.444;2022-07-18T16:11:19;31.40;70.90
7518;DHT22;3800;48.922;9.444;2022-07-18T16:13:47;31.50;67.60
7518;DHT22;3800;48.922;9.444;2022-07-18T16:16:16;31.50;66.50
7518;DHT22;3800;48.922;9.444;2022-07-18T16:18:44;31.50;69.20
7518;DHT22;3800;48.922;9.444;2022-07-18T16:21:12;31.50;66.80
7518;DHT22;3800;48.922;9.444;2022-07-18T16:23:41;31.50;65.60